createdAt,value
2023-04-03T00:01:26.164Z,54.60
2023-04-03T00:03:55.674Z,54.50
2023-04-03T00:06:26.024Z,54.50
2023-04-03T00:08:53.931Z,54.40
2023-04-03T00:11:23.365Z,54.50
2023-04-03T00:13:51.163Z,54.50
2023-04-03T00:16:20.549Z,54.50
2023-04-03T00:18:47.548Z,54.40
2023-04-03T00:21:15.600Z,54.40
2023-04-03T00:23:45.009Z,54.40
2023-04-03T00:26:14.958Z,54.40
2023-04-03T00:28:41.933Z,54.40
2023-04-03T00:31:08.905Z,54.40
2023-04-03T00:33:35.991Z,54.40
2023-04-03T00:36:13.615Z,54.40
2023-04-03T00:38:43.154Z,54.30
2023-04-03T00:41:12.277Z,54.30
2023-04-03T00:43:39.358Z,54.20
2023-04-03T00:46:06.358Z,54.20
2023-04-03T00:48:37.247Z,54.20
2023-04-03T00:51:07.424Z,54.10
2023-04-03T00:54:08.787Z,54.10
2023-04-03T00:56:39.293Z,54.10
2023-04-03T00:59:18.828Z,54.00
2023-04-03T01:01:50.002Z,54.00
2023-04-03T01:04:33.256Z,53.90
2023-04-03T01:07:06.163Z,54.00
2023-04-03T01:09:36.203Z,54.00
2023-04-03T01:12:24.337Z,54.00
2023-04-03T01:14:56.988Z,53.70
2023-04-03T01:17:34.468Z,53.80
2023-04-03T01:20:30.916Z,53.70
2023-04-03T01:23:24.865Z,53.50
2023-04-03T01:25:57.201Z,53.50
2023-04-03T01:28:31.384Z,53.60
2023-04-03T01:31:03.977Z,53.50
2023-04-03T01:33:31.423Z,53.50
2023-04-03T01:36:01.530Z,53.40
2023-04-03T01:38:33.831Z,53.30
2023-04-03T01:41:02.920Z,53.30
2023-04-03T01:43:29.821Z,53.40
2023-04-03T01:45:56.750Z,53.30
2023-04-03T01:48:24.713Z,53.40
2023-04-03T01:50:54.927Z,53.40
2023-04-03T01:53:24.370Z,53.40
2023-04-03T01:55:51.237Z,53.40
2023-04-03T01:58:18.104Z,53.40
2023-04-03T02:00:45.095Z,53.40
2023-04-03T02:03:12.088Z,53.50
2023-04-03T02:05:39.684Z,53.40
2023-04-03T02:08:11.673Z,53.30
2023-04-03T02:10:38.744Z,53.30
2023-04-03T02:13:06.040Z,53.50
2023-04-03T02:15:32.965Z,53.40
2023-04-03T02:17:59.944Z,53.40
2023-04-03T02:20:27.321Z,53.30
2023-04-03T02:22:56.663Z,53.20
2023-04-03T02:25:25.950Z,53.30
2023-04-03T02:27:53.596Z,53.30
2023-04-03T02:30:22.955Z,53.30
2023-04-03T02:32:50.080Z,53.40
2023-04-03T02:35:22.118Z,53.30
2023-04-03T02:37:51.974Z,53.30
2023-04-03T02:40:21.374Z,53.40
2023-04-03T02:42:48.489Z,53.40
2023-04-03T02:45:24.264Z,53.40
2023-04-03T02:47:58.338Z,53.30
2023-04-03T02:50:26.456Z,53.40
2023-04-03T02:52:53.386Z,53.40
2023-04-03T02:55:24.965Z,53.20
2023-04-03T02:57:54.242Z,53.20
2023-04-03T03:00:21.512Z,53.20
2023-04-03T03:02:50.176Z,53.20
2023-04-03T03:05:19.749Z,53.00
2023-04-03T03:07:49.492Z,52.90
2023-04-03T03:10:18.771Z,52.90
2023-04-03T03:12:48.008Z,52.80
2023-04-03T03:15:16.280Z,52.70
2023-04-03T03:17:47.708Z,52.80
2023-04-03T03:20:17.727Z,52.90
2023-04-03T03:22:44.607Z,52.90
2023-04-03T03:25:13.991Z,52.90
2023-04-03T03:27:43.819Z,52.90
2023-04-03T03:30:11.263Z,52.80
2023-04-03T03:32:38.410Z,52.90
2023-04-03T03:35:05.806Z,52.80
2023-04-03T03:37:32.667Z,52.90
2023-04-03T03:40:01.959Z,52.90
2023-04-03T03:42:33.630Z,52.90
2023-04-03T03:45:03.185Z,52.90
2023-04-03T03:47:30.526Z,52.90
2023-04-03T03:50:02.061Z,52.90
2023-04-03T03:52:32.077Z,52.90
2023-04-03T03:54:59.045Z,52.90
2023-04-03T03:57:31.451Z,53.00
2023-04-03T04:00:00.700Z,52.90
2023-04-03T04:02:29.861Z,52.90
2023-04-03T04:05:03.632Z,52.90
2023-04-03T04:07:30.757Z,52.80
2023-04-03T04:09:57.667Z,52.80
2023-04-03T04:12:24.490Z,52.90
2023-04-03T04:14:51.332Z,52.80
2023-04-03T04:17:22.844Z,52.80
2023-04-03T04:19:49.810Z,53.40
2023-04-03T04:22:18.778Z,52.80
2023-04-03T04:24:48.045Z,52.80
2023-04-03T04:27:15.087Z,52.60
2023-04-03T04:29:45.078Z,52.60
2023-04-03T04:32:14.299Z,52.60
2023-04-03T04:34:41.322Z,52.60
2023-04-03T04:37:11.262Z,52.60
2023-04-03T04:39:38.121Z,52.60
2023-04-03T04:42:05.125Z,52.60
2023-04-03T04:44:34.632Z,52.50
2023-04-03T04:47:04.026Z,52.50
2023-04-03T04:52:28.449Z,52.30
2023-04-03T04:54:55.440Z,52.30
2023-04-03T04:57:22.585Z,52.20
2023-04-03T04:59:49.596Z,52.20
2023-04-03T05:02:18.079Z,52.10
2023-04-03T05:04:47.452Z,52.00
2023-04-03T05:07:17.192Z,52.00
2023-04-03T05:09:48.832Z,52.00
2023-04-03T05:12:15.723Z,52.00
2023-04-03T05:14:47.145Z,51.90
2023-04-03T05:17:14.053Z,52.00
2023-04-03T05:19:40.972Z,51.90
2023-04-03T05:22:08.070Z,51.70
2023-04-03T05:24:41.820Z,51.50
2023-04-03T05:27:08.875Z,51.40
2023-04-03T05:29:35.771Z,51.50
2023-04-03T05:32:05.264Z,51.30
2023-04-03T05:34:34.599Z,51.20
2023-04-03T05:37:01.589Z,51.10
2023-04-03T05:39:33.404Z,51.10
2023-04-03T05:42:00.857Z,50.80
2023-04-03T05:44:30.141Z,50.60
2023-04-03T05:46:57.053Z,50.90
2023-04-03T05:49:26.360Z,50.80
2023-04-03T05:51:55.543Z,50.60
2023-04-03T05:54:33.445Z,50.50
2023-04-03T05:57:05.009Z,50.30
2023-04-03T05:59:34.458Z,50.10
2023-04-03T06:02:02.151Z,50.20
2023-04-03T06:04:29.139Z,50.10
2023-04-03T06:07:00.433Z,50.20
2023-04-03T06:09:33.439Z,50.30
2023-04-03T06:12:03.429Z,50.40
2023-04-03T06:14:30.411Z,50.20
2023-04-03T06:17:00.522Z,50.20
2023-04-03T06:19:27.418Z,50.20
2023-04-03T06:21:54.337Z,50.20
2023-04-03T06:24:22.756Z,50.20
2023-04-03T06:26:51.995Z,50.30
2023-04-03T06:29:22.369Z,50.30
2023-04-03T06:31:50.672Z,50.30
2023-04-03T06:34:21.366Z,50.30
2023-04-03T06:36:53.633Z,50.40
2023-04-03T06:39:28.384Z,50.40
2023-04-03T06:41:57.531Z,50.30
2023-04-03T06:44:24.629Z,50.40
2023-04-03T06:46:55.268Z,50.30
2023-04-03T06:49:24.712Z,50.20
2023-04-03T06:51:54.397Z,50.20
2023-04-03T06:54:21.376Z,50.20
2023-04-03T06:56:48.621Z,50.20
2023-04-03T06:59:16.038Z,50.20
2023-04-03T07:01:43.561Z,50.20
2023-04-03T07:04:10.828Z,50.10
2023-04-03T07:06:37.757Z,50.20
2023-04-03T07:09:08.694Z,50.20
2023-04-03T07:11:38.239Z,50.20
2023-04-03T07:14:08.684Z,50.10
2023-04-03T07:16:41.026Z,50.20
2023-04-03T07:19:10.002Z,50.10
2023-04-03T07:21:38.279Z,50.10
2023-04-03T07:24:09.984Z,50.00
2023-04-03T07:26:46.275Z,50.00
2023-04-03T07:29:13.385Z,50.00
2023-04-03T07:31:45.696Z,50.00
2023-04-03T07:34:15.286Z,49.90
2023-04-03T07:36:42.482Z,49.90
2023-04-03T07:39:12.457Z,49.90
2023-04-03T07:41:41.744Z,50.00
2023-04-03T07:44:11.510Z,49.80
2023-04-03T07:46:41.581Z,49.60
2023-04-03T07:49:11.065Z,49.60
2023-04-03T07:51:38.158Z,49.60
2023-04-03T07:54:05.299Z,49.50
2023-04-03T07:56:33.046Z,49.50
2023-04-03T07:59:07.649Z,49.60
2023-04-03T08:01:34.685Z,49.50
2023-04-03T08:04:07.776Z,49.40
2023-04-03T08:06:46.394Z,49.20
2023-04-03T08:09:16.163Z,49.10
2023-04-03T08:11:46.183Z,49.10
2023-04-03T08:14:17.889Z,49.00
2023-04-03T08:16:49.169Z,49.00
2023-04-03T08:19:25.981Z,49.00
2023-04-03T08:21:58.627Z,48.90
2023-04-03T08:24:26.390Z,49.00
2023-04-03T08:26:56.585Z,48.90
2023-04-03T08:29:26.398Z,48.90
2023-04-03T08:31:55.922Z,49.00
2023-04-03T08:34:25.546Z,48.90
2023-04-03T08:36:52.526Z,48.90
2023-04-03T08:39:22.471Z,48.90
2023-04-03T08:41:52.486Z,49.00
2023-04-03T08:44:47.243Z,49.00
2023-04-03T08:47:31.335Z,49.00
2023-04-03T08:50:12.722Z,49.00
2023-04-03T08:52:50.175Z,49.00
2023-04-03T08:55:44.108Z,49.00
2023-04-03T08:58:18.176Z,48.60
2023-04-03T09:01:17.208Z,48.90
2023-04-03T09:03:44.254Z,48.80
2023-04-03T09:06:30.171Z,48.90
2023-04-03T09:09:32.850Z,48.70
2023-04-03T09:12:27.537Z,48.80
2023-04-03T09:15:09.949Z,48.90
2023-04-03T09:17:45.815Z,49.00
2023-04-03T09:21:02.054Z,49.00
2023-04-03T09:23:53.008Z,49.00
2023-04-03T09:26:29.610Z,49.10
2023-04-03T09:29:03.559Z,49.30
2023-04-03T09:31:46.771Z,48.60
2023-04-03T09:34:28.497Z,48.90
2023-04-03T09:36:57.876Z,49.00
2023-04-03T09:39:30.561Z,49.10
2023-04-03T09:42:29.962Z,49.20
2023-04-03T09:45:06.496Z,48.70
2023-04-03T09:47:37.757Z,49.00
2023-04-03T09:50:14.142Z,48.90
2023-04-03T09:52:47.266Z,48.80
2023-04-03T09:55:22.832Z,48.80
2023-04-03T09:57:52.380Z,48.90
2023-04-03T10:00:38.608Z,49.00
2023-04-03T10:03:26.403Z,48.70
2023-04-03T10:05:55.492Z,48.70
2023-04-03T10:08:27.446Z,48.50
2023-04-03T10:11:12.891Z,48.90
2023-04-03T10:13:57.753Z,48.10
2023-04-03T10:16:40.275Z,48.10
2023-04-03T10:19:35.463Z,48.30
2023-04-03T10:22:35.347Z,48.00
2023-04-03T10:25:14.856Z,47.90
2023-04-03T10:28:11.877Z,48.20
2023-04-03T10:31:16.616Z,48.00
2023-04-03T10:34:10.828Z,48.00
2023-04-03T10:37:10.429Z,48.30
2023-04-03T10:39:49.926Z,48.20
2023-04-03T10:42:47.784Z,48.10
2023-04-03T10:45:39.381Z,48.00
2023-04-03T10:48:31.313Z,48.00
2023-04-03T10:50:58.117Z,48.00
2023-04-03T10:54:29.106Z,48.20
2023-04-03T10:57:11.881Z,48.20
2023-04-03T10:59:49.894Z,48.10
2023-04-03T11:02:34.633Z,47.90
2023-04-03T11:05:32.027Z,47.80
2023-04-03T11:08:04.036Z,47.80
2023-04-03T11:10:45.917Z,47.80
2023-04-03T11:13:26.285Z,47.60
2023-04-03T11:15:57.918Z,47.60
2023-04-03T11:18:46.348Z,47.80
2023-04-03T11:21:30.646Z,47.90
2023-04-03T11:24:01.710Z,48.00
2023-04-03T11:26:34.820Z,48.00
2023-04-03T11:29:24.760Z,48.00
2023-04-03T11:32:34.777Z,48.00
2023-04-03T11:35:08.406Z,47.50
2023-04-03T11:37:47.406Z,47.60
2023-04-03T11:40:18.661Z,48.10
2023-04-03T11:42:52.668Z,47.50
2023-04-03T11:45:26.303Z,47.40
2023-04-03T11:48:02.798Z,47.40
2023-04-03T11:50:42.414Z,47.40
2023-04-03T11:53:09.529Z,47.30
2023-04-03T11:55:55.361Z,47.30
2023-04-03T11:58:32.817Z,47.30
2023-04-03T12:01:09.179Z,47.10
2023-04-03T12:03:44.831Z,47.00
2023-04-03T12:06:14.659Z,46.70
2023-04-03T12:08:42.036Z,46.80
2023-04-03T12:11:14.851Z,46.50
2023-04-03T12:13:53.086Z,46.30
2023-04-03T12:16:21.677Z,45.90
2023-04-03T12:18:54.138Z,46.10
2023-04-03T12:21:24.448Z,45.90
2023-04-03T12:24:03.912Z,45.90
2023-04-03T12:26:48.581Z,45.90
2023-04-03T12:29:22.165Z,45.90
2023-04-03T12:32:24.831Z,45.90
2023-04-03T12:34:57.583Z,45.60
2023-04-03T12:37:54.052Z,46.20
2023-04-03T12:40:32.846Z,45.20
2023-04-03T12:43:05.397Z,45.40
2023-04-03T12:46:19.755Z,45.30
2023-04-03T12:48:46.681Z,45.00
2023-04-03T12:51:24.688Z,45.30
2023-04-03T12:53:59.471Z,45.00
2023-04-03T12:56:32.092Z,45.00
2023-04-03T12:59:28.029Z,45.10
2023-04-03T13:02:02.424Z,44.80
2023-04-03T13:04:32.144Z,45.10
2023-04-03T13:06:59.246Z,45.30
2023-04-03T13:09:32.425Z,45.40
2023-04-03T13:12:25.453Z,45.10
2023-04-03T13:15:04.772Z,44.70
2023-04-03T13:17:40.755Z,44.90
2023-04-03T13:20:40.194Z,44.80
2023-04-03T13:23:10.162Z,44.90
2023-04-03T13:25:45.528Z,44.90
2023-04-03T13:28:17.962Z,44.90
2023-04-03T13:31:19.953Z,44.90
2023-04-03T13:34:04.574Z,44.50
2023-04-03T13:36:38.180Z,44.80
2023-04-03T13:39:16.403Z,44.80
2023-04-03T13:41:48.048Z,44.70
2023-04-03T13:44:23.806Z,44.70
2023-04-03T13:46:59.083Z,44.80
2023-04-03T13:49:37.523Z,45.00
2023-04-03T13:52:36.877Z,45.00
2023-04-03T13:55:26.773Z,44.70
2023-04-03T13:58:23.262Z,44.40
2023-04-03T14:00:57.722Z,44.60
2023-04-03T14:03:34.545Z,44.50
2023-04-03T14:06:05.656Z,44.50
2023-04-03T14:08:42.228Z,44.50
2023-04-03T14:11:19.888Z,44.50
2023-04-03T14:13:48.795Z,44.50
2023-04-03T14:16:26.469Z,44.50
2023-04-03T14:18:53.954Z,44.50
2023-04-03T14:21:27.003Z,44.50
2023-04-03T14:23:54.078Z,44.40
2023-04-03T14:26:24.825Z,44.50
2023-04-03T14:28:58.579Z,44.40
2023-04-03T14:31:27.668Z,44.30
2023-04-03T14:33:56.856Z,44.20
2023-04-03T14:36:30.197Z,44.00
2023-04-03T14:38:59.008Z,43.70
2023-04-03T14:41:27.834Z,43.80
2023-04-03T14:43:54.900Z,43.80
2023-04-03T14:46:54.358Z,43.80
2023-04-03T14:49:28.848Z,43.50
2023-04-03T14:51:57.599Z,43.80
2023-04-03T14:54:26.841Z,43.80
2023-04-03T14:56:59.889Z,43.90
2023-04-03T14:59:27.741Z,43.80
2023-04-03T15:01:56.774Z,43.70
2023-04-03T15:04:26.407Z,43.70
2023-04-03T15:06:54.104Z,43.70
2023-04-03T15:09:28.111Z,43.70
2023-04-03T15:11:56.053Z,43.50
2023-04-03T15:14:35.975Z,43.40
2023-04-03T15:17:18.795Z,43.40
2023-04-03T15:19:48.344Z,43.10
2023-04-03T15:22:20.593Z,43.30
2023-04-03T15:24:47.654Z,43.20
2023-04-03T15:27:17.838Z,43.40
2023-04-03T15:29:45.928Z,43.40
2023-04-03T15:32:13.760Z,43.50
2023-04-03T15:34:42.453Z,43.40
2023-04-03T15:37:09.431Z,43.40
2023-04-03T15:39:36.321Z,43.40
2023-04-03T15:42:07.295Z,43.30
2023-04-03T15:44:35.677Z,43.30
2023-04-03T15:47:03.718Z,43.50
2023-04-03T15:49:33.456Z,43.40
2023-04-03T15:52:00.811Z,43.40
2023-04-03T15:54:27.838Z,43.40
2023-04-03T15:56:57.934Z,43.50
2023-04-03T15:59:27.112Z,43.50
2023-04-03T16:01:56.484Z,43.50
2023-04-03T16:04:23.637Z,43.60
2023-04-03T16:06:53.373Z,43.60
2023-04-03T16:09:23.205Z,43.50
2023-04-03T16:11:50.086Z,43.40
2023-04-03T16:14:16.965Z,43.40
2023-04-03T16:16:46.124Z,43.30
2023-04-03T16:19:14.090Z,43.90
2023-04-03T16:21:43.553Z,43.50
2023-04-03T16:24:13.959Z,42.90
2023-04-03T16:26:41.960Z,42.90
2023-04-03T16:29:08.954Z,42.90
2023-04-03T16:31:36.341Z,43.20
2023-04-03T16:34:03.469Z,43.00
2023-04-03T16:36:30.540Z,42.80
2023-04-03T16:39:02.286Z,42.80
2023-04-03T16:41:29.276Z,42.90
2023-04-03T16:43:58.675Z,42.90
2023-04-03T16:46:25.784Z,42.80
2023-04-03T16:48:52.677Z,42.90
2023-04-03T16:51:21.887Z,42.90
2023-04-03T16:53:48.871Z,42.80
2023-04-03T16:56:16.081Z,42.70
2023-04-03T16:58:43.252Z,42.80
2023-04-03T17:01:18.351Z,42.80
2023-04-03T17:03:46.287Z,42.50
2023-04-03T17:06:19.322Z,42.50
2023-04-03T17:08:51.800Z,42.50
2023-04-03T17:11:20.138Z,42.40
2023-04-03T17:13:47.075Z,42.40
2023-04-03T17:16:16.621Z,42.60
2023-04-03T17:18:44.728Z,42.40
2023-04-03T17:21:13.786Z,43.10
2023-04-03T17:23:44.148Z,42.50
2023-04-03T17:26:15.631Z,42.40
2023-04-03T17:28:45.627Z,42.50
2023-04-03T17:31:16.305Z,42.70
2023-04-03T17:33:45.388Z,42.70
2023-04-03T17:36:12.410Z,42.60
2023-04-03T17:38:39.723Z,42.60
2023-04-03T17:41:08.832Z,42.60
2023-04-03T17:43:40.423Z,42.60
2023-04-03T17:46:09.779Z,42.60
2023-04-03T17:48:40.134Z,42.70
2023-04-03T17:51:11.150Z,42.80
2023-04-03T17:53:38.654Z,42.60
2023-04-03T17:56:12.700Z,42.60
2023-04-03T17:58:39.937Z,42.60
2023-04-03T18:01:35.989Z,42.70
2023-04-03T18:04:07.351Z,42.50
2023-04-03T18:06:44.950Z,43.50
2023-04-03T18:09:17.536Z,42.80
2023-04-03T18:11:47.237Z,42.90
2023-04-03T18:14:22.771Z,42.80
2023-04-03T18:16:50.413Z,42.80
2023-04-03T18:19:22.944Z,42.80
2023-04-03T18:21:52.986Z,42.70
2023-04-03T18:24:25.065Z,42.70
2023-04-03T18:26:59.810Z,42.80
2023-04-03T18:29:29.875Z,42.80
2023-04-03T18:31:57.858Z,42.80
2023-04-03T18:34:27.382Z,42.80
2023-04-03T18:36:54.293Z,42.80
2023-04-03T18:39:23.271Z,42.80
2023-04-03T18:41:52.121Z,42.80
2023-04-03T18:44:25.574Z,42.80
2023-04-03T18:46:53.993Z,42.80
2023-04-03T18:49:21.437Z,42.90
2023-04-03T18:51:50.901Z,42.90
2023-04-03T18:54:20.573Z,42.90
2023-04-03T18:56:50.553Z,42.90
2023-04-03T18:59:19.892Z,42.90
2023-04-03T19:01:49.168Z,42.90
2023-04-03T19:04:18.551Z,42.90
2023-04-03T19:06:48.016Z,42.90
2023-04-03T19:09:15.398Z,42.90
2023-04-03T19:11:44.909Z,42.90
2023-04-03T19:14:16.699Z,43.00
2023-04-03T19:16:46.983Z,42.90
2023-04-03T19:19:16.154Z,42.80
2023-04-03T19:21:43.081Z,42.90
2023-04-03T19:24:12.669Z,42.90
2023-04-03T19:26:42.736Z,42.90
2023-04-03T19:29:10.453Z,43.00
2023-04-03T19:31:40.738Z,43.00
2023-04-03T19:34:08.559Z,42.90
2023-04-03T19:36:36.047Z,42.90
2023-04-03T19:39:06.686Z,43.00
2023-04-03T19:41:36.685Z,43.00
2023-04-03T19:44:07.421Z,42.90
2023-04-03T19:46:35.712Z,42.90
2023-04-03T19:49:03.280Z,43.00
2023-04-03T19:51:32.456Z,43.00
2023-04-03T19:53:59.388Z,43.00
2023-04-03T19:56:33.777Z,43.00
2023-04-03T19:59:03.093Z,43.00
2023-04-03T20:01:34.674Z,43.00
2023-04-03T20:04:02.048Z,42.90
2023-04-03T20:06:31.757Z,43.00
2023-04-03T20:09:01.930Z,43.10
2023-04-03T20:11:31.740Z,43.00
2023-04-03T20:14:01.316Z,43.00
2023-04-03T20:16:30.691Z,43.10
2023-04-03T20:18:57.812Z,43.00
2023-04-03T20:21:33.167Z,43.00
2023-04-03T20:24:02.138Z,42.90
2023-04-03T20:26:32.376Z,43.00
2023-04-03T20:29:01.510Z,42.90
2023-04-03T20:31:29.714Z,42.90
2023-04-03T20:33:57.008Z,43.00
2023-04-03T20:36:28.461Z,42.90
2023-04-03T20:38:58.760Z,42.90
2023-04-03T20:41:28.475Z,42.90
2023-04-03T20:43:55.458Z,42.90
2023-04-03T20:46:25.432Z,42.90
2023-04-03T20:48:52.792Z,42.90
2023-04-03T20:51:20.980Z,42.90
2023-04-03T20:53:48.991Z,42.90
2023-04-03T20:56:18.982Z,42.80
2023-04-03T20:58:53.528Z,42.80
2023-04-03T21:01:24.358Z,42.80
2023-04-03T21:04:01.084Z,42.80
2023-04-03T21:07:24.801Z,42.80
2023-04-03T21:10:48.423Z,42.60
2023-04-03T21:14:14.242Z,42.70
2023-04-03T21:16:41.048Z,42.80
2023-04-03T21:19:15.878Z,43.00
2023-04-03T21:21:45.666Z,43.10
2023-04-03T21:24:14.114Z,43.00
2023-04-03T21:26:41.741Z,42.90
2023-04-03T21:29:09.523Z,43.00
2023-04-03T21:31:53.102Z,43.00
2023-04-03T21:34:26.305Z,42.80
2023-04-03T21:36:57.501Z,42.90
2023-04-03T21:39:24.627Z,43.00
2023-04-03T21:41:57.052Z,43.00
2023-04-03T21:44:32.479Z,43.00
2023-04-03T21:46:59.807Z,43.00
2023-04-03T21:49:27.170Z,43.00
2023-04-03T21:51:56.757Z,42.90
2023-04-03T21:54:27.905Z,43.00
2023-04-03T21:56:59.612Z,43.00
2023-04-03T21:59:26.628Z,43.10
2023-04-03T22:01:56.339Z,43.00
2023-04-03T22:04:23.353Z,43.00
2023-04-03T22:06:53.397Z,43.00
2023-04-03T22:09:22.540Z,43.00
2023-04-03T22:11:51.796Z,43.10
2023-04-03T22:14:23.692Z,43.10
2023-04-03T22:16:50.844Z,43.20
2023-04-03T22:19:17.715Z,43.20
2023-04-03T22:21:47.582Z,43.20
2023-04-03T22:24:14.964Z,43.20
2023-04-03T22:26:47.084Z,43.10
2023-04-03T22:29:17.160Z,43.10
2023-04-03T22:31:46.355Z,43.10
2023-04-03T22:34:13.337Z,43.10
2023-04-03T22:36:43.386Z,43.10
2023-04-03T22:39:15.211Z,43.20
2023-04-03T22:41:45.184Z,43.20
2023-04-03T22:44:12.733Z,43.20
2023-04-03T22:46:39.793Z,43.20
2023-04-03T22:49:06.764Z,43.20
2023-04-03T22:51:36.261Z,43.20
2023-04-03T22:54:03.400Z,43.10
2023-04-03T22:56:30.331Z,43.10
2023-04-03T22:59:02.731Z,43.00
2023-04-03T23:01:30.394Z,42.90
2023-04-03T23:04:01.970Z,42.90
2023-04-03T23:06:28.866Z,42.80
2023-04-03T23:08:56.165Z,42.70
2023-04-03T23:11:27.730Z,43.00
2023-04-03T23:13:54.441Z,42.90
2023-04-03T23:16:21.422Z,42.80
2023-04-03T23:18:53.339Z,43.00
2023-04-03T23:21:23.077Z,43.00
2023-04-03T23:23:49.968Z,43.00
2023-04-03T23:26:19.327Z,42.90
2023-04-03T23:28:51.130Z,42.90
2023-04-03T23:31:23.494Z,42.90
2023-04-03T23:33:50.360Z,42.90
2023-04-03T23:36:21.089Z,42.70
2023-04-03T23:38:48.051Z,42.70
2023-04-03T23:41:15.047Z,42.70
2023-04-03T23:43:42.301Z,42.70
2023-04-03T23:46:12.148Z,42.70
2023-04-03T23:48:41.425Z,42.60
2023-04-03T23:51:12.961Z,42.70
2023-04-03T23:53:39.753Z,42.70
2023-04-03T23:56:11.390Z,42.70
2023-04-03T23:58:40.643Z,42.90
